Time;durP1;ratioP1;P1;durP2;ratioP2;P2;SDS_P1;SDS_P2;PMS_P1;PMS_P2;Temp;Humidity;BMP_temperature;BMP_pressure;BME280_temperature;BME280_humidity;BME280_pressure;Samples;Min_cycle;Max_cycle;Signal;HPM_P1;HPM_P2
2022/06/23 00:00:19;;;;;;;15.17;6.00;;;17.40;99.90;;;;;;5012977;28;20243;-86
2022/06/23 00:02:45;;;;;;;15.33;6.23;;;17.50;99.90;;;;;;5001064;28;20168;-85
2022/06/23 00:05:16;;;;;;;20.87;6.33;;;17.40;99.90;;;;;;5001353;28;20248;-86
2022/06/23 00:07:47;;;;;;;10.80;6.23;;;17.30;99.90;;;;;;5001688;28;20167;-86
2022/06/23 00:10:37;;;;;;;13.20;5.77;;;17.30;99.90;;;;;;5001959;28;20191;-86
2022/06/23 00:13:12;;;;;;;14.40;6.03;;;17.30;99.90;;;;;;5000653;28;20188;-86
2022/06/23 00:15:41;;;;;;;14.67;6.27;;;17.20;99.90;;;;;;4999992;28;20195;-85
2022/06/23 00:18:17;;;;;;;15.77;6.53;;;17.20;99.90;;;;;;4998890;28;20538;-85
2022/06/23 00:20:52;;;;;;;13.13;6.07;;;17.20;99.90;;;;;;4999301;28;20705;-85
2022/06/23 00:23:18;;;;;;;10.03;4.90;;;17.10;99.90;;;;;;4998617;28;20180;-86
2022/06/23 00:25:47;;;;;;;13.40;4.97;;;17.00;99.90;;;;;;4998428;28;20196;-85
2022/06/23 00:28:17;;;;;;;10.33;4.10;;;17.00;99.90;;;;;;4998466;28;20187;-85
2022/06/23 00:30:44;;;;;;;11.63;4.57;;;17.00;99.90;;;;;;4998905;28;20212;-85
2022/06/23 00:33:19;;;;;;;13.13;3.70;;;17.00;99.90;;;;;;4997364;28;20218;-85
2022/06/23 00:35:48;;;;;;;8.70;3.33;;;16.90;99.90;;;;;;4997049;28;20175;-85
2022/06/23 00:38:27;;;;;;;6.10;2.80;;;17.00;99.90;;;;;;4996595;28;20655;-85
2022/06/23 00:40:54;;;;;;;6.87;2.80;;;17.00;99.90;;;;;;4999409;28;20222;-85
2022/06/23 00:43:20;;;;;;;14.50;3.07;;;16.90;99.90;;;;;;5014069;28;20172;-85
2022/06/23 00:46:04;;;;;;;7.63;3.43;;;17.00;99.90;;;;;;5017584;28;20168;-86
2022/06/23 00:48:53;;;;;;;8.07;3.00;;;17.00;99.90;;;;;;5004882;28;20160;-86
2022/06/23 00:51:26;;;;;;;7.43;3.40;;;16.90;99.90;;;;;;5008239;28;20199;-86
2022/06/23 00:54:15;;;;;;;7.50;3.13;;;17.00;99.90;;;;;;5008780;28;20193;-85
2022/06/23 00:56:50;;;;;;;7.87;2.43;;;17.10;99.90;;;;;;5011976;28;20187;-86
2022/06/23 00:59:25;;;;;;;11.47;3.53;;;17.10;99.90;;;;;;5008887;28;20572;-86
2022/06/23 01:02:04;;;;;;;6.73;2.97;;;17.00;99.90;;;;;;5011010;28;20179;-86
2022/06/23 01:04:56;;;;;;;11.13;3.93;;;17.00;99.90;;;;;;5010524;28;20164;-86
2022/06/23 01:07:51;;;;;;;11.93;4.50;;;16.90;99.90;;;;;;5009911;28;20190;-87
2022/06/23 01:10:37;;;;;;;16.10;4.23;;;16.80;99.90;;;;;;5017243;28;20226;-85
2022/06/23 01:13:30;;;;;;;15.87;5.27;;;16.90;99.90;;;;;;5013904;28;20190;-87
2022/06/23 01:16:09;;;;;;;13.37;6.37;;;16.60;99.90;;;;;;5006095;28;20195;-85
2022/06/23 01:18:44;;;;;;;14.17;5.70;;;16.70;99.90;;;;;;5004817;28;20175;-86
2022/06/23 01:21:28;;;;;;;9.73;6.00;;;16.60;99.90;;;;;;5005534;28;20218;-86
2022/06/23 01:24:06;;;;;;;19.70;6.50;;;16.60;99.90;;;;;;5003722;28;20183;-86
2022/06/23 01:26:41;;;;;;;13.90;6.93;;;16.50;99.90;;;;;;5004719;28;20266;-86
2022/06/23 01:29:12;;;;;;;12.53;6.20;;;16.40;99.90;;;;;;5004211;28;20173;-86
2022/06/23 01:31:42;;;;;;;13.10;6.10;;;16.40;99.90;;;;;;5004510;28;20233;-86
2022/06/23 01:34:39;;;;;;;15.73;6.03;;;16.40;99.90;;;;;;5004846;28;20649;-86
2022/06/23 01:37:18;;;;;;;14.03;6.27;;;16.30;99.90;;;;;;4988889;28;20190;-87
2022/06/23 01:40:04;;;;;;;12.90;5.37;;;16.30;99.90;;;;;;5004821;28;20221;-87
2022/06/23 01:42:36;;;;;;;13.13;5.80;;;16.30;99.90;;;;;;5006333;28;20180;-86
2022/06/23 01:45:15;;;;;;;16.00;5.63;;;16.30;99.90;;;;;;5007103;28;20188;-86
2022/06/23 01:47:55;;;;;;;14.07;6.23;;;16.30;99.90;;;;;;5002600;28;20175;-87
2022/06/23 01:50:32;;;;;;;10.83;5.97;;;16.20;99.90;;;;;;5001945;28;20203;-86
2022/06/23 01:53:25;;;;;;;10.57;5.63;;;16.20;99.90;;;;;;5003400;28;20194;-86
2022/06/23 01:56:31;;;;;;;12.03;5.13;;;16.20;99.90;;;;;;5003792;28;20251;-86
2022/06/23 01:59:00;;;;;;;12.90;5.53;;;16.10;99.90;;;;;;5001149;28;20275;-86
2022/06/23 02:01:37;;;;;;;11.00;5.63;;;16.20;99.90;;;;;;5002986;28;20180;-86
2022/06/23 02:04:14;;;;;;;16.07;5.40;;;16.20;99.90;;;;;;5002952;28;20646;-86
2022/06/23 02:06:58;;;;;;;9.73;5.07;;;16.10;99.90;;;;;;5003510;28;20182;-86
2022/06/23 02:09:31;;;;;;;12.50;5.53;;;16.10;99.90;;;;;;5000786;28;20211;-86
2022/06/23 02:11:57;;;;;;;9.50;4.70;;;16.10;99.90;;;;;;5003752;28;20634;-87
2022/06/23 02:14:33;;;;;;;11.67;5.60;;;16.00;99.90;;;;;;5001232;28;20257;-87
2022/06/23 02:17:16;;;;;;;11.70;5.17;;;16.00;99.90;;;;;;5001919;28;20171;-86
2022/06/23 02:19:56;;;;;;;12.40;5.57;;;16.10;99.90;;;;;;5002191;28;20215;-86
2022/06/23 02:22:34;;;;;;;15.67;5.23;;;16.10;99.90;;;;;;5001787;28;20543;-87
2022/06/23 02:25:03;;;;;;;9.70;4.60;;;16.10;99.90;;;;;;5002873;28;20168;-87
2022/06/23 02:27:47;;;;;;;15.67;5.50;;;16.00;99.90;;;;;;5003005;28;20198;-86
2022/06/23 02:30:40;;;;;;;7.33;5.00;;;16.00;99.90;;;;;;5004318;28;20207;-87
2022/06/23 02:33:19;;;;;;;10.47;5.37;;;16.00;99.90;;;;;;5014063;28;20203;-87
2022/06/23 02:36:13;;;;;;;12.63;5.60;;;16.00;99.90;;;;;;5003287;28;20206;-87
2022/06/23 02:38:45;;;;;;;10.77;5.03;;;16.00;99.90;;;;;;5003664;28;20267;-87
2022/06/23 02:41:20;;;;;;;10.20;4.83;;;16.00;99.90;;;;;;5012043;28;20207;-86
2022/06/23 02:43:51;;;;;;;9.70;5.70;;;16.00;99.90;;;;;;5019585;28;20174;-86
2022/06/23 02:46:49;;;;;;;15.03;5.30;;;15.90;99.90;;;;;;5008812;28;20258;-86
2022/06/23 02:49:31;;;;;;;14.23;5.70;;;15.90;99.90;;;;;;4998565;28;20215;-87
2022/06/23 02:52:06;;;;;;;12.43;5.63;;;15.90;99.90;;;;;;5018164;28;20171;-88
2022/06/23 02:54:49;;;;;;;14.57;5.60;;;15.90;99.90;;;;;;5019642;28;20159;-87
2022/06/23 02:57:27;;;;;;;9.80;5.70;;;15.90;99.90;;;;;;5002641;28;20190;-87
2022/06/23 02:59:58;;;;;;;9.73;5.43;;;15.90;99.90;;;;;;5005617;28;20218;-86
2022/06/23 03:02:31;;;;;;;9.43;5.53;;;15.80;99.90;;;;;;5008505;28;20176;-85
2022/06/23 03:05:13;;;;;;;9.43;5.40;;;15.90;99.90;;;;;;5004359;28;20163;-86
2022/06/23 03:08:09;;;;;;;10.77;5.23;;;15.80;99.90;;;;;;5003166;28;20164;-86
2022/06/23 03:10:45;;;;;;;12.27;5.53;;;15.80;99.90;;;;;;5001014;28;20234;-86
2022/06/23 03:13:29;;;;;;;11.57;5.47;;;15.90;99.90;;;;;;5002419;28;20173;-86
2022/06/23 03:16:23;;;;;;;12.43;5.73;;;15.80;99.90;;;;;;5002065;28;20242;-86
2022/06/23 03:18:58;;;;;;;10.40;5.73;;;15.80;99.90;;;;;;5001881;28;20534;-86
2022/06/23 03:21:31;;;;;;;8.50;5.20;;;15.80;99.90;;;;;;5002410;28;20199;-86
2022/06/23 03:24:34;;;;;;;9.03;5.00;;;15.80;99.90;;;;;;5003211;28;20172;-85
2022/06/23 03:27:13;;;;;;;11.77;5.80;;;15.80;99.90;;;;;;5005068;28;20170;-87
2022/06/23 03:30:06;;;;;;;10.50;5.33;;;15.80;99.90;;;;;;5003560;28;20243;-86
2022/06/23 03:32:39;;;;;;;13.60;5.70;;;15.80;99.90;;;;;;5002984;28;20666;-86
2022/06/23 03:35:24;;;;;;;12.20;6.03;;;15.80;99.90;;;;;;5002088;28;20312;-87
2022/06/23 03:38:21;;;;;;;9.43;5.40;;;15.80;99.90;;;;;;5002215;28;20171;-85
2022/06/23 03:43:54;;;;;;;13.87;5.57;;;15.70;99.90;;;;;;5009545;28;20226;-86
2022/06/23 03:46:30;;;;;;;11.30;5.63;;;15.70;99.90;;;;;;5002188;28;20254;-86
2022/06/23 03:49:31;;;;;;;11.30;5.87;;;15.70;99.90;;;;;;5001674;28;20603;-87
2022/06/23 03:51:59;;;;;;;10.93;5.23;;;15.70;99.90;;;;;;5001148;28;20179;-87
2022/06/23 03:54:36;;;;;;;10.37;5.60;;;15.70;99.90;;;;;;5002006;28;20605;-86
2022/06/23 03:57:15;;;;;;;13.53;5.57;;;15.70;99.90;;;;;;5002000;28;20507;-88
2022/06/23 04:00:22;;;;;;;10.57;5.03;;;15.60;99.90;;;;;;5003821;28;20235;-87
2022/06/23 04:02:58;;;;;;;9.63;5.07;;;15.60;99.90;;;;;;5003734;28;20186;-87
2022/06/23 04:05:56;;;;;;;11.03;4.73;;;15.50;99.90;;;;;;5004093;28;20177;-87
2022/06/23 04:08:24;;;;;;;12.73;5.10;;;15.50;99.90;;;;;;5009836;28;20705;-87
2022/06/23 04:10:56;;;;;;;12.60;5.47;;;15.60;99.90;;;;;;5003373;28;20200;-87
2022/06/23 04:13:49;;;;;;;10.43;4.57;;;15.60;99.90;;;;;;5004729;28;20180;-88
2022/06/23 04:16:15;;;;;;;9.80;4.60;;;15.60;99.90;;;;;;5004957;28;20218;-88
2022/06/23 04:18:45;;;;;;;14.73;4.83;;;15.60;99.90;;;;;;5017968;28;20171;-87
2022/06/23 04:21:23;;;;;;;6.10;4.30;;;15.60;99.90;;;;;;5006414;28;20199;-87
2022/06/23 04:23:52;;;;;;;13.77;4.53;;;15.70;99.90;;;;;;5010660;28;20207;-87
2022/06/23 04:26:29;;;;;;;7.97;4.13;;;15.70;99.90;;;;;;5007917;28;20214;-87
2022/06/23 04:29:11;;;;;;;11.20;3.97;;;15.70;99.90;;;;;;5007825;28;20210;-86
2022/06/23 04:31:42;;;;;;;13.87;4.80;;;15.70;99.90;;;;;;5006300;28;20681;-86
2022/06/23 04:34:22;;;;;;;6.93;3.80;;;15.90;99.90;;;;;;5004987;28;20278;-87
2022/06/23 04:36:48;;;;;;;8.07;3.97;;;15.90;99.90;;;;;;5004250;28;20178;-87
2022/06/23 04:39:19;;;;;;;11.40;4.53;;;15.90;99.90;;;;;;5005930;28;20241;-87
2022/06/23 04:41:59;;;;;;;7.97;4.27;;;15.90;99.90;;;;;;5004356;28;20234;-87
2022/06/23 04:44:31;;;;;;;8.80;3.30;;;16.00;99.90;;;;;;5004053;28;20172;-87
2022/06/23 04:47:06;;;;;;;8.03;3.30;;;16.00;99.90;;;;;;5003762;28;20182;-87
2022/06/23 04:49:58;;;;;;;7.30;3.77;;;16.00;99.90;;;;;;5003689;28;20341;-87
2022/06/23 04:52:37;;;;;;;7.70;3.50;;;16.10;99.90;;;;;;5003205;28;20191;-86
2022/06/23 04:55:23;;;;;;;7.53;3.47;;;16.10;99.90;;;;;;5003062;28;20226;-86
2022/06/23 04:58:13;;;;;;;6.27;3.10;;;16.30;99.90;;;;;;5005058;28;20250;-87
2022/06/23 05:00:45;;;;;;;5.53;3.17;;;16.30;99.90;;;;;;5022056;28;20204;-88
2022/06/23 05:03:30;;;;;;;7.63;3.80;;;16.30;99.90;;;;;;5022109;28;20214;-87
2022/06/23 05:06:19;;;;;;;5.47;2.47;;;16.40;99.90;;;;;;5005125;28;20171;-87
2022/06/23 05:08:46;;;;;;;5.80;3.00;;;16.40;99.90;;;;;;5005244;28;20187;-88
2022/06/23 05:11:18;;;;;;;5.90;2.53;;;16.40;99.90;;;;;;5005671;28;20207;-88
2022/06/23 05:13:50;;;;;;;9.23;2.70;;;16.40;99.90;;;;;;5006124;28;20677;-87
2022/06/23 05:16:36;;;;;;;8.63;3.30;;;16.50;99.90;;;;;;5006854;28;20295;-87
2022/06/23 05:19:08;;;;;;;9.30;3.27;;;16.50;99.90;;;;;;5008436;28;20182;-85
2022/06/23 05:21:42;;;;;;;5.67;2.87;;;16.50;99.90;;;;;;5009878;28;20182;-84
2022/06/23 05:24:19;;;;;;;9.00;2.80;;;16.50;99.90;;;;;;5010015;28;20313;-85
2022/06/23 05:26:44;;;;;;;5.73;2.30;;;16.50;99.90;;;;;;5008718;28;20175;-86
2022/06/23 05:29:18;;;;;;;4.93;2.33;;;16.60;99.90;;;;;;5007717;28;20535;-85
2022/06/23 05:31:49;;;;;;;5.63;2.60;;;16.60;99.90;;;;;;5007973;28;20653;-87
2022/06/23 05:34:30;;;;;;;6.77;2.20;;;16.60;99.90;;;;;;5004902;28;20174;-88
2022/06/23 05:37:15;;;;;;;7.70;2.47;;;16.60;99.90;;;;;;5005789;28;20163;-86
2022/06/23 05:39:54;;;;;;;9.30;2.60;;;16.60;99.90;;;;;;5006531;28;20208;-86
2022/06/23 05:42:32;;;;;;;6.57;2.63;;;16.70;99.90;;;;;;5004673;28;20191;-88
2022/06/23 05:45:08;;;;;;;3.50;2.37;;;16.80;99.90;;;;;;5004713;28;20529;-88
2022/06/23 05:47:36;;;;;;;7.27;2.90;;;16.80;99.90;;;;;;5005949;28;20175;-88
2022/06/23 05:50:12;;;;;;;4.53;2.57;;;16.90;99.90;;;;;;5005039;28;20199;-88
2022/06/23 05:52:51;;;;;;;5.07;2.80;;;16.80;99.90;;;;;;5008358;28;20179;-88
2022/06/23 05:55:28;;;;;;;5.27;2.53;;;16.80;99.90;;;;;;5012758;28;20171;-86
2022/06/23 05:58:03;;;;;;;3.13;2.10;;;16.80;99.90;;;;;;5017846;28;20199;-87
2022/06/23 06:00:37;;;;;;;4.97;2.77;;;16.80;99.90;;;;;;5014775;28;20298;-87
2022/06/23 06:03:15;;;;;;;8.10;2.70;;;16.80;99.90;;;;;;5003168;28;20191;-87
2022/06/23 06:05:47;;;;;;;7.37;2.53;;;16.90;99.90;;;;;;5000711;28;20226;-87
2022/06/23 06:08:20;;;;;;;5.20;2.50;;;17.00;99.90;;;;;;5002008;28;20257;-87
2022/06/23 06:10:47;;;;;;;7.73;2.20;;;17.10;99.90;;;;;;5002125;28;20203;-87
2022/06/23 06:13:30;;;;;;;8.70;2.50;;;17.20;99.90;;;;;;5002773;28;20184;-87
2022/06/23 06:15:58;;;;;;;4.97;2.27;;;17.20;99.90;;;;;;5003603;28;20195;-87
2022/06/23 06:18:24;;;;;;;6.73;2.63;;;17.40;99.90;;;;;;5003307;28;20270;-87
2022/06/23 06:20:52;;;;;;;8.60;2.07;;;17.50;99.90;;;;;;5004996;28;20257;-87
2022/06/23 06:23:27;;;;;;;5.53;2.10;;;17.60;99.90;;;;;;5003300;28;20183;-87
2022/06/23 06:25:53;;;;;;;5.07;2.23;;;17.70;99.90;;;;;;5003450;28;20178;-87
2022/06/23 06:28:22;;;;;;;7.20;2.40;;;17.90;99.90;;;;;;5003337;28;20527;-87
2022/06/23 06:31:22;;;;;;;4.33;1.90;;;18.00;99.90;;;;;;5004530;28;20202;-87
2022/06/23 06:33:59;;;;;;;3.43;2.17;;;18.10;99.90;;;;;;5004730;28;20176;-88
2022/06/23 06:36:31;;;;;;;3.67;1.93;;;18.20;99.90;;;;;;5006464;28;20186;-87
2022/06/23 06:39:07;;;;;;;3.60;1.70;;;18.20;99.90;;;;;;5006871;28;20211;-87
2022/06/23 06:41:33;;;;;;;2.47;1.70;;;18.30;99.90;;;;;;5005514;28;20633;-87
2022/06/23 06:44:01;;;;;;;6.63;2.10;;;18.40;99.90;;;;;;5003128;28;20190;-87
2022/06/23 06:46:28;;;;;;;3.57;1.60;;;18.50;99.90;;;;;;5003404;28;20175;-87
2022/06/23 06:48:54;;;;;;;6.50;1.60;;;18.60;99.90;;;;;;5002187;28;20183;-87
2022/06/23 06:51:23;;;;;;;7.93;1.67;;;18.70;99.90;;;;;;5003741;28;20203;-87
2022/06/23 06:54:17;;;;;;;7.37;2.20;;;18.80;99.90;;;;;;5003624;28;20194;-87
2022/06/23 06:56:59;;;;;;;4.60;1.80;;;18.90;99.90;;;;;;5008995;28;20244;-86
2022/06/23 06:59:39;;;;;;;5.13;1.63;;;19.00;99.90;;;;;;4998134;28;20200;-84
2022/06/23 07:02:17;;;;;;;2.60;1.50;;;19.10;99.90;;;;;;4996920;28;20177;-84
2022/06/23 07:04:54;;;;;;;4.50;1.57;;;19.30;99.90;;;;;;4997858;28;20193;-84
2022/06/23 07:07:24;;;;;;;3.53;1.40;;;19.50;99.90;;;;;;4996868;28;20195;-84
2022/06/23 07:09:59;;;;;;;2.77;1.40;;;19.50;99.90;;;;;;5012685;28;20216;-86
2022/06/23 07:12:27;;;;;;;2.23;1.30;;;19.60;99.90;;;;;;5020149;28;20168;-87
2022/06/23 07:15:12;;;;;;;4.90;1.57;;;19.60;99.90;;;;;;5003296;28;20195;-86
2022/06/23 07:17:43;;;;;;;5.03;1.10;;;19.80;99.90;;;;;;5004110;28;20171;-84
2022/06/23 07:20:22;;;;;;;4.80;1.70;;;19.80;99.90;;;;;;5004882;28;20199;-87
2022/06/23 07:23:00;;;;;;;7.30;1.50;;;20.00;99.90;;;;;;5004561;28;20535;-86
2022/06/23 07:25:32;;;;;;;5.77;1.53;;;20.00;99.90;;;;;;5003598;28;20254;-85
2022/06/23 07:28:04;;;;;;;3.67;1.43;;;20.10;99.90;;;;;;5003026;28;20505;-86
2022/06/23 07:30:35;;;;;;;4.27;1.33;;;20.20;99.90;;;;;;5005044;28;20254;-86
2022/06/23 07:33:10;;;;;;;3.53;1.47;;;20.30;99.90;;;;;;5009943;28;20177;-85
2022/06/23 07:35:51;;;;;;;4.93;1.57;;;20.40;99.90;;;;;;5016393;28;20183;-85
2022/06/23 07:38:32;;;;;;;4.13;1.27;;;20.50;99.90;;;;;;5010507;28;20181;-86
2022/06/23 07:41:03;;;;;;;7.80;1.73;;;20.70;99.90;;;;;;5002326;28;20200;-86
2022/06/23 07:44:02;;;;;;;2.80;1.20;;;20.70;99.90;;;;;;5003512;28;20170;-86
2022/06/23 07:46:29;;;;;;;3.43;1.50;;;20.80;99.90;;;;;;5003277;28;20283;-86
2022/06/23 07:48:55;;;;;;;2.97;1.27;;;20.90;99.90;;;;;;5002437;28;20183;-86
2022/06/23 07:51:22;;;;;;;4.53;1.40;;;21.00;99.90;;;;;;5007773;28;20225;-86
2022/06/23 07:53:50;;;;;;;4.60;1.60;;;21.20;99.90;;;;;;5011730;28;20186;-86
2022/06/23 07:56:20;;;;;;;4.77;1.50;;;21.30;99.90;;;;;;5002090;28;20263;-86
2022/06/23 07:58:51;;;;;;;5.80;1.50;;;21.40;99.90;;;;;;5000487;28;20180;-86
2022/06/23 08:01:28;;;;;;;2.60;1.00;;;21.50;99.90;;;;;;5001375;28;20209;-85
2022/06/23 08:03:57;;;;;;;4.30;1.70;;;21.50;99.90;;;;;;4999956;28;20163;-85
2022/06/23 08:06:24;;;;;;;5.77;1.50;;;21.60;99.90;;;;;;5000900;28;20196;-85
2022/06/23 08:08:55;;;;;;;3.60;1.47;;;21.70;99.90;;;;;;4998949;28;20185;-85
2022/06/23 08:14:22;;;;;;;5.13;1.50;;;21.80;99.90;;;;;;5000345;28;20171;-84
2022/06/23 08:16:51;;;;;;;4.13;1.40;;;22.00;99.90;;;;;;5001013;28;20172;-85
2022/06/23 08:19:30;;;;;;;4.03;1.67;;;22.20;99.90;;;;;;5003179;28;20168;-85
2022/06/23 08:22:10;;;;;;;5.63;1.70;;;22.20;99.90;;;;;;5002189;28;20167;-86
2022/06/23 08:24:38;;;;;;;3.70;1.10;;;22.30;99.90;;;;;;5002990;28;20227;-87
2022/06/23 08:27:09;;;;;;;4.03;1.53;;;22.40;99.90;;;;;;5003507;28;20175;-87
2022/06/23 08:29:54;;;;;;;8.07;1.23;;;22.60;99.90;;;;;;5001656;28;20562;-86
2022/06/23 08:32:20;;;;;;;4.80;1.60;;;22.80;99.90;;;;;;5000481;28;20183;-86
2022/06/23 08:35:07;;;;;;;4.87;1.50;;;23.10;99.90;;;;;;5002450;28;20176;-85
2022/06/23 08:37:57;;;;;;;9.33;1.90;;;23.10;99.90;;;;;;5003171;28;20180;-86
2022/06/23 08:41:01;;;;;;;4.63;1.27;;;23.30;99.90;;;;;;5002947;28;20218;-85
2022/06/23 08:43:34;;;;;;;4.27;1.60;;;23.50;99.90;;;;;;5004788;28;20652;-85
2022/06/23 08:46:12;;;;;;;5.87;1.80;;;23.70;99.90;;;;;;5005502;28;20176;-84
2022/06/23 08:48:37;;;;;;;5.07;1.50;;;23.90;99.90;;;;;;5003783;28;20176;-83
2022/06/23 08:51:13;;;;;;;5.93;1.80;;;24.00;99.90;;;;;;5003696;28;20203;-84
2022/06/23 08:53:52;;;;;;;10.50;1.60;;;24.10;99.90;;;;;;5006142;28;20163;-85
2022/06/23 08:56:27;;;;;;;6.47;1.70;;;24.30;99.90;;;;;;5006596;28;20239;-85
2022/06/23 08:59:09;;;;;;;6.50;2.00;;;24.40;99.90;;;;;;5005443;28;20234;-84
2022/06/23 09:01:36;;;;;;;5.73;1.50;;;;;;;;;;5007374;28;20192;-85
2022/06/23 09:04:25;;;;;;;9.17;1.60;;;24.70;99.90;;;;;;5012205;28;20183;-84
2022/06/23 09:07:06;;;;;;;4.60;1.50;;;24.80;99.90;;;;;;5007107;28;20247;-85
2022/06/23 09:09:42;;;;;;;6.27;1.47;;;24.90;99.90;;;;;;5007741;28;20238;-85
2022/06/23 09:12:20;;;;;;;6.70;1.63;;;24.90;99.90;;;;;;5010037;28;20187;-84
2022/06/23 09:15:10;;;;;;;3.73;1.70;;;25.00;99.90;;;;;;5010627;28;20199;-85
2022/06/23 09:17:38;;;;;;;7.40;1.60;;;25.20;99.90;;;;;;5014931;28;20191;-84
2022/06/23 09:20:37;;;;;;;3.67;1.67;;;25.40;99.90;;;;;;5015919;28;20225;-85
2022/06/23 09:23:41;;;;;;;5.27;1.53;;;25.50;99.90;;;;;;5011259;28;20237;-85
2022/06/23 09:26:30;;;;;;;7.70;1.77;;;25.70;99.90;;;;;;5011274;28;20189;-84
2022/06/23 09:29:02;;;;;;;6.97;1.30;;;25.90;99.90;;;;;;5007901;28;20166;-84
2022/06/23 09:31:49;;;;;;;5.83;1.53;;;26.00;99.90;;;;;;5007870;28;20270;-85
2022/06/23 09:34:28;;;;;;;6.87;1.73;;;26.30;99.90;;;;;;5009296;28;20238;-84
2022/06/23 09:37:02;;;;;;;5.27;1.97;;;26.30;99.90;;;;;;5007009;28;20247;-84
2022/06/23 09:40:05;;;;;;;2.90;1.53;;;26.50;99.90;;;;;;5007626;28;20557;-83
2022/06/23 09:42:52;;;;;;;7.33;1.63;;;26.50;99.90;;;;;;5006774;28;20678;-84
2022/06/23 09:45:28;;;;;;;5.17;2.00;;;26.50;99.90;;;;;;5005566;28;20542;-83
2022/06/23 09:48:26;;;;;;;7.43;2.00;;;26.70;99.90;;;;;;5006028;28;20177;-84
2022/06/23 09:51:00;;;;;;;4.20;1.33;;;26.80;99.90;;;;;;5006340;28;20205;-84
2022/06/23 09:54:01;;;;;;;4.00;1.63;;;26.90;99.90;;;;;;5008268;28;20220;-85
2022/06/23 09:56:48;;;;;;;4.87;1.30;;;27.00;99.90;;;;;;5008375;28;20205;-84
2022/06/23 09:59:35;;;;;;;6.50;1.83;;;27.30;99.90;;;;;;5006964;28;20207;-85
2022/06/23 10:02:19;;;;;;;9.60;2.07;;;27.40;99.90;;;;;;5008818;28;20201;-86
2022/06/23 10:05:04;;;;;;;5.40;1.73;;;27.40;99.90;;;;;;5007131;28;20184;-85
2022/06/23 10:08:23;;;;;;;8.70;2.10;;;27.70;99.90;;;;;;5008419;28;20191;-85
2022/06/23 10:11:19;;;;;;;4.47;1.70;;;28.00;99.90;;;;;;5008997;28;20207;-86
2022/06/23 10:14:04;;;;;;;4.67;1.60;;;27.90;99.90;;;;;;5009438;28;20283;-86
2022/06/23 10:16:58;;;;;;;6.20;2.00;;;27.90;99.90;;;;;;5012957;28;20192;-84
2022/06/23 10:19:35;;;;;;;3.33;1.40;;;28.20;99.90;;;;;;5008353;28;20203;-84
2022/06/23 10:22:25;;;;;;;6.43;1.60;;;28.40;99.90;;;;;;5009275;28;20244;-85
2022/06/23 10:25:28;;;;;;;7.67;1.83;;;28.30;99.90;;;;;;5008331;28;20676;-84
2022/06/23 10:28:03;;;;;;;8.37;1.70;;;28.50;99.90;;;;;;5005121;28;20176;-84
2022/06/23 10:30:57;;;;;;;5.03;1.63;;;28.40;99.90;;;;;;5006079;28;20194;-84
2022/06/23 10:33:40;;;;;;;5.17;1.60;;;28.90;99.90;;;;;;5007352;28;20173;-84
2022/06/23 10:36:22;;;;;;;8.97;1.87;;;28.80;99.90;;;;;;5006680;28;20234;-84
2022/06/23 10:39:12;;;;;;;7.57;1.40;;;29.00;99.90;;;;;;5005600;28;20204;-85
2022/06/23 10:41:47;;;;;;;6.60;1.77;;;;;;;;;;5005803;28;20202;-85
2022/06/23 10:44:43;;;;;;;5.10;1.70;;;29.10;99.90;;;;;;5007064;28;20181;-86
2022/06/23 10:47:17;;;;;;;4.33;1.73;;;29.40;99.90;;;;;;5007314;28;20241;-84
2022/06/23 10:49:49;;;;;;;6.43;2.00;;;29.60;99.90;;;;;;5009195;28;20197;-85
2022/06/23 10:52:33;;;;;;;4.43;1.87;;;29.60;99.90;;;;;;5007893;28;20203;-84
2022/06/23 10:55:32;;;;;;;5.73;1.80;;;29.70;99.90;;;;;;5008257;28;20172;-85
2022/06/23 10:58:12;;;;;;;4.87;2.00;;;29.40;99.90;;;;;;5005679;28;20168;-83
2022/06/23 11:00:51;;;;;;;7.07;1.80;;;29.70;99.90;;;;;;5005290;28;20232;-83
2022/06/23 11:03:17;;;;;;;8.70;1.70;;;;;;;;;;5007111;28;20576;-83
2022/06/23 11:05:49;;;;;;;4.80;1.93;;;;;;;;;;5006548;28;20173;-84
2022/06/23 11:08:42;;;;;;;7.33;2.20;;;30.20;99.90;;;;;;5007314;28;20194;-83
2022/06/23 11:11:26;;;;;;;5.73;2.17;;;30.20;99.90;;;;;;5006984;28;20348;-83
2022/06/23 11:13:52;;;;;;;4.63;2.07;;;;;;;;;;5006749;28;20173;-82
2022/06/23 11:16:19;;;;;;;4.43;2.00;;;;;;;;;;5006853;28;20188;-84
2022/06/23 11:19:07;;;;;;;6.13;2.30;;;30.50;99.90;;;;;;5005543;28;20655;-83
2022/06/23 11:21:59;;;;;;;4.77;2.03;;;30.60;99.90;;;;;;5004968;28;20212;-84
2022/06/23 11:25:10;;;;;;;4.80;1.80;;;30.70;99.90;;;;;;5006091;28;20179;-83
2022/06/23 11:28:04;;;;;;;4.90;1.87;;;30.70;99.90;;;;;;5015610;28;20193;-84
2022/06/23 11:30:58;;;;;;;5.53;1.80;;;30.90;99.90;;;;;;5010924;28;20203;-84
2022/06/23 11:33:43;;;;;;;5.33;2.27;;;;;;;;;;5008428;28;20225;-83
2022/06/23 11:36:27;;;;;;;10.00;2.60;;;31.20;99.90;;;;;;5006833;28;20198;-84
2022/06/23 11:39:08;;;;;;;4.67;1.50;;;31.30;99.90;;;;;;5005533;28;20181;-85
2022/06/23 11:42:08;;;;;;;6.07;1.67;;;31.20;99.90;;;;;;5005477;28;20198;-86
2022/06/23 11:44:49;;;;;;;4.50;1.83;;;31.40;99.90;;;;;;5004363;28;20675;-84
2022/06/23 11:47:43;;;;;;;5.17;2.00;;;31.30;99.90;;;;;;5005039;28;20164;-83
2022/06/23 11:50:09;;;;;;;5.47;1.90;;;;;;;;;;5006498;28;20290;-83
2022/06/23 11:53:13;;;;;;;2.80;1.50;;;31.60;99.90;;;;;;5001821;28;20188;-84
2022/06/23 11:55:48;;;;;;;7.83;2.10;;;31.70;99.90;;;;;;5000061;28;20199;-84
2022/06/23 11:58:36;;;;;;;4.30;1.77;;;31.60;99.90;;;;;;5004774;28;20256;-83
2022/06/23 12:01:15;;;;;;;5.40;1.80;;;31.70;99.90;;;;;;5010526;28;20214;-82
2022/06/23 12:04:18;;;;;;;8.17;2.30;;;31.70;99.90;;;;;;5004984;28;20173;-82
2022/06/23 12:07:21;;;;;;;5.93;1.87;;;31.70;99.90;;;;;;5003888;28;20184;-83
2022/06/23 12:09:54;;;;;;;4.33;1.93;;;31.60;99.90;;;;;;5003986;28;20201;-83
2022/06/23 12:12:21;;;;;;;4.17;2.10;;;31.60;99.90;;;;;;5004974;28;20238;-84
2022/06/23 12:14:47;;;;;;;5.57;1.70;;;31.60;97.80;;;;;;5003925;28;20196;-84
2022/06/23 12:17:26;;;;;;;3.37;1.63;;;31.50;99.90;;;;;;5005428;28;20264;-85
2022/06/23 12:20:17;;;;;;;5.30;1.70;;;31.50;98.20;;;;;;5006009;28;20206;-85
2022/06/23 12:22:52;;;;;;;6.57;1.60;;;31.50;98.40;;;;;;5005273;28;20177;-84
2022/06/23 12:25:23;;;;;;;8.90;2.40;;;31.70;99.90;;;;;;5004899;28;20196;-84
2022/06/23 12:28:15;;;;;;;8.20;1.80;;;31.90;99.20;;;;;;5004701;28;20176;-85
2022/06/23 12:31:25;;;;;;;5.00;1.90;;;32.20;99.40;;;;;;5004156;28;20205;-85
2022/06/23 12:34:01;;;;;;;4.53;1.87;;;32.20;95.90;;;;;;5006009;28;20235;-85
2022/06/23 12:36:59;;;;;;;8.33;1.80;;;32.00;98.80;;;;;;5005752;28;20213;-84
2022/06/23 12:39:48;;;;;;;6.07;2.07;;;32.00;97.20;;;;;;5005347;28;20200;-84
2022/06/23 12:42:33;;;;;;;8.90;2.00;;;31.90;98.00;;;;;;5008704;28;20189;-85
2022/06/23 12:45:30;;;;;;;3.73;1.60;;;32.00;97.80;;;;;;5015648;28;20176;-84
2022/06/23 12:48:16;;;;;;;5.97;1.97;;;32.20;99.90;;;;;;5010043;28;20461;-84
2022/06/23 12:50:47;;;;;;;6.53;2.00;;;32.40;97.10;;;;;;5011019;28;20201;-84
2022/06/23 12:53:19;;;;;;;7.93;1.67;;;32.40;96.30;;;;;;5010482;28;20212;-84
2022/06/23 12:55:59;;;;;;;8.23;1.67;;;32.40;97.70;;;;;;5010165;28;20653;-84
2022/06/23 12:58:33;;;;;;;6.27;2.33;;;32.60;99.40;;;;;;5008412;28;20189;-85
2022/06/23 13:01:02;;;;;;;5.60;1.90;;;32.60;98.10;;;;;;5008316;28;20219;-85
2022/06/23 13:03:45;;;;;;;5.37;1.73;;;32.60;98.00;;;;;;5008746;28;20176;-84
2022/06/23 13:06:17;;;;;;;9.90;2.13;;;32.70;97.20;;;;;;5009606;28;20178;-83
2022/06/23 13:09:09;;;;;;;5.17;1.87;;;32.80;97.70;;;;;;5009318;28;20159;-84
2022/06/23 13:11:46;;;;;;;3.80;1.90;;;32.70;96.60;;;;;;5007616;28;20215;-84
2022/06/23 13:14:42;;;;;;;7.67;2.10;;;32.70;96.20;;;;;;5009176;28;20230;-84
2022/06/23 13:17:32;;;;;;;6.43;1.80;;;32.80;94.40;;;;;;5009606;28;20352;-84
2022/06/23 13:20:16;;;;;;;3.50;1.70;;;32.80;94.00;;;;;;5008280;28;20213;-85
2022/06/23 13:22:59;;;;;;;5.87;1.77;;;32.70;94.50;;;;;;5006227;28;20680;-82
2022/06/23 13:25:33;;;;;;;3.57;1.63;;;32.80;94.50;;;;;;5004754;28;20182;-83
2022/06/23 13:28:00;;;;;;;4.60;1.90;;;32.90;92.60;;;;;;5001730;28;20171;-83
2022/06/23 13:30:31;;;;;;;6.47;1.50;;;32.90;93.50;;;;;;5000231;28;20237;-84
2022/06/23 13:32:57;;;;;;;5.27;1.70;;;;;;;;;;5007159;28;20179;-82
2022/06/23 13:35:38;;;;;;;4.70;2.10;;;32.90;95.80;;;;;;5021123;28;20198;-83
2022/06/23 13:38:20;;;;;;;6.60;1.93;;;33.00;93.50;;;;;;5016234;28;20186;-84
2022/06/23 13:40:46;;;;;;;4.93;1.77;;;;;;;;;;5010123;28;20255;-84
2022/06/23 13:43:12;;;;;;;7.70;1.83;;;;;;;;;;5009790;28;20273;-85
2022/06/23 13:45:48;;;;;;;3.23;1.33;;;33.10;85.90;;;;;;5010451;28;20186;-85
2022/06/23 13:48:14;;;;;;;5.47;1.60;;;;;;;;;;5008214;28;20190;-84
2022/06/23 13:50:47;;;;;;;4.50;2.00;;;32.90;91.10;;;;;;5008509;28;20672;-85
2022/06/23 13:53:47;;;;;;;3.60;1.53;;;32.90;91.30;;;;;;5010418;28;20180;-84
2022/06/23 13:56:25;;;;;;;7.40;2.77;;;32.90;90.90;;;;;;5006869;28;20216;-83